UAAH/BXH METAR and TAF weather

Enter ICAO airport designator
Station Type Date Time Source
UAAH METAR 2023/02/06 00:30 UTC NOAA

UAAH 060030Z 13002MPS 2000 R05/P2000N BR OVC011 M05/M06 Q1019 NOSIG RMK QFE727/0970


Station Type Date Time Source
UAAH Decoded METAR 2023/02/06 00:30 UTC NOAA

Station name not available
Feb 05, 2023 - 07:30 PM EST / 2023.02.06 0030 UTC
Wind: from the SE (130 degrees) at 4 MPH (4 KT):0
Visibility: 1 mile(s):0
Sky conditions: overcast
Weather: mist
Temperature: 23 F (-5 C)
Dew Point: 21 F (-6 C)
Relative Humidity: 92%
Pressure (altimeter): 30.09 in. Hg (1019 hPa)
ob: UAAH 060030Z 13002MPS 2000 R05/P2000N BR OVC011 M05/M06 Q1019 NOSIG RMK QFE727/0970
cycle: 0

Station Type Date Time Source
UAAH TAF 2021/05/11 09:06 UTC NOAA

TAF
AMD TAF
AMD UAAH 111100Z 1109/1218 CNL

Example: see airport list